sensor_id;sensor_type;location;lat;lon;timestamp;temperature;humidity
23233;DHT22;11785;49.500;8.288;2024-03-08T00:00:26;5.70;91.80
23233;DHT22;11785;49.500;8.288;2024-03-08T00:02:52;5.60;92.30
23233;DHT22;11785;49.500;8.288;2024-03-08T00:05:19;5.50;92.80
23233;DHT22;11785;49.500;8.288;2024-03-08T00:07:45;5.40;93.30
23233;DHT22;11785;49.500;8.288;2024-03-08T00:10:11;5.30;93.70
23233;DHT22;11785;49.500;8.288;2024-03-08T00:12:42;5.20;94.20
23233;DHT22;11785;49.500;8.288;2024-03-08T00:15:09;5.10;94.60
23233;DHT22;11785;49.500;8.288;2024-03-08T00:17:36;5.10;94.80
23233;DHT22;11785;49.500;8.288;2024-03-08T00:20:02;5.00;95.30
23233;DHT22;11785;49.500;8.288;2024-03-08T00:22:34;5.00;95.50
23233;DHT22;11785;49.500;8.288;2024-03-08T00:24:59;5.00;95.60
23233;DHT22;11785;49.500;8.288;2024-03-08T00:27:25;5.00;95.70
23233;DHT22;11785;49.500;8.288;2024-03-08T00:29:50;4.90;96.00
23233;DHT22;11785;49.500;8.288;2024-03-08T00:32:16;4.80;96.30
23233;DHT22;11785;49.500;8.288;2024-03-08T00:34:42;4.80;96.60
23233;DHT22;11785;49.500;8.288;2024-03-08T00:37:08;4.70;97.10
23233;DHT22;11785;49.500;8.288;2024-03-08T00:39:34;4.60;97.50
23233;DHT22;11785;49.500;8.288;2024-03-08T00:41:59;4.60;97.90
23233;DHT22;11785;49.500;8.288;2024-03-08T00:44:25;4.50;98.30
23233;DHT22;11785;49.500;8.288;2024-03-08T00:46:50;4.40;98.80
23233;DHT22;11785;49.500;8.288;2024-03-08T00:49:16;4.40;99.00
23233;DHT22;11785;49.500;8.288;2024-03-08T00:51:42;4.40;99.10
23233;DHT22;11785;49.500;8.288;2024-03-08T00:54:08;4.40;99.20
23233;DHT22;11785;49.500;8.288;2024-03-08T00:56:34;4.40;99.20
23233;DHT22;11785;49.500;8.288;2024-03-08T00:59:01;4.40;99.20
23233;DHT22;11785;49.500;8.288;2024-03-08T01:01:28;4.40;99.30
23233;DHT22;11785;49.500;8.288;2024-03-08T01:03:53;4.30;99.60
23233;DHT22;11785;49.500;8.288;2024-03-08T01:06:19;4.30;99.80
23233;DHT22;11785;49.500;8.288;2024-03-08T01:08:45;4.30;99.90
23233;DHT22;11785;49.500;8.288;2024-03-08T01:11:13;4.20;99.90
23233;DHT22;11785;49.500;8.288;2024-03-08T01:13:39;4.30;99.90
23233;DHT22;11785;49.500;8.288;2024-03-08T01:16:05;4.30;99.90
23233;DHT22;11785;49.500;8.288;2024-03-08T01:18:31;4.30;99.90
23233;DHT22;11785;49.500;8.288;2024-03-08T01:20:57;4.20;99.90
23233;DHT22;11785;49.500;8.288;2024-03-08T01:23:22;4.20;99.90
23233;DHT22;11785;49.500;8.288;2024-03-08T01:25:48;4.20;99.90
23233;DHT22;11785;49.500;8.288;2024-03-08T01:28:17;4.20;99.90
23233;DHT22;11785;49.500;8.288;2024-03-08T01:30:42;4.20;99.90
23233;DHT22;11785;49.500;8.288;2024-03-08T01:33:08;4.20;99.90
23233;DHT22;11785;49.500;8.288;2024-03-08T01:35:34;4.20;99.90
23233;DHT22;11785;49.500;8.288;2024-03-08T01:37:59;4.10;99.90
23233;DHT22;11785;49.500;8.288;2024-03-08T01:40:25;4.10;99.90
23233;DHT22;11785;49.500;8.288;2024-03-08T01:42:50;4.10;99.90
23233;DHT22;11785;49.500;8.288;2024-03-08T01:45:16;4.00;99.90
23233;DHT22;11785;49.500;8.288;2024-03-08T01:47:42;4.10;99.90
23233;DHT22;11785;49.500;8.288;2024-03-08T01:50:07;4.00;99.90
23233;DHT22;11785;49.500;8.288;2024-03-08T01:52:34;4.00;99.90
23233;DHT22;11785;49.500;8.288;2024-03-08T01:55:00;4.00;99.90
23233;DHT22;11785;49.500;8.288;2024-03-08T01:57:28;3.90;99.90
23233;DHT22;11785;49.500;8.288;2024-03-08T01:59:54;3.80;99.90
23233;DHT22;11785;49.500;8.288;2024-03-08T02:02:22;3.70;99.90
23233;DHT22;11785;49.500;8.288;2024-03-08T02:04:48;3.70;99.90
23233;DHT22;11785;49.500;8.288;2024-03-08T02:07:14;3.70;99.90
23233;DHT22;11785;49.500;8.288;2024-03-08T02:09:39;3.70;99.90
23233;DHT22;11785;49.500;8.288;2024-03-08T02:12:06;3.60;99.90
23233;DHT22;11785;49.500;8.288;2024-03-08T02:14:33;3.60;99.90
23233;DHT22;11785;49.500;8.288;2024-03-08T02:17:02;3.50;99.90
23233;DHT22;11785;49.500;8.288;2024-03-08T02:19:28;3.40;99.90
23233;DHT22;11785;49.500;8.288;2024-03-08T02:21:53;3.40;99.90
23233;DHT22;11785;49.500;8.288;2024-03-08T02:24:19;3.30;99.90
23233;DHT22;11785;49.500;8.288;2024-03-08T02:26:45;3.40;99.90
23233;DHT22;11785;49.500;8.288;2024-03-08T02:29:11;3.40;99.90
23233;DHT22;11785;49.500;8.288;2024-03-08T02:31:37;3.40;99.90
23233;DHT22;11785;49.500;8.288;2024-03-08T02:34:04;3.40;99.90
23233;DHT22;11785;49.500;8.288;2024-03-08T02:36:30;3.40;99.90
23233;DHT22;11785;49.500;8.288;2024-03-08T02:39:01;3.40;99.90
23233;DHT22;11785;49.500;8.288;2024-03-08T02:41:27;3.40;99.90
23233;DHT22;11785;49.500;8.288;2024-03-08T02:43:52;3.30;99.90
23233;DHT22;11785;49.500;8.288;2024-03-08T02:46:18;3.20;99.90
23233;DHT22;11785;49.500;8.288;2024-03-08T02:48:43;3.10;99.90
23233;DHT22;11785;49.500;8.288;2024-03-08T02:51:09;3.10;99.90
23233;DHT22;11785;49.500;8.288;2024-03-08T02:53:36;3.00;99.90
23233;DHT22;11785;49.500;8.288;2024-03-08T02:56:01;3.00;99.90
23233;DHT22;11785;49.500;8.288;2024-03-08T02:58:27;2.90;99.90
23233;DHT22;11785;49.500;8.288;2024-03-08T03:00:52;2.90;99.90
23233;DHT22;11785;49.500;8.288;2024-03-08T03:03:18;2.90;99.90
23233;DHT22;11785;49.500;8.288;2024-03-08T03:05:43;2.80;99.90
23233;DHT22;11785;49.500;8.288;2024-03-08T03:08:09;2.80;99.90
23233;DHT22;11785;49.500;8.288;2024-03-08T03:10:35;2.80;99.90
23233;DHT22;11785;49.500;8.288;2024-03-08T03:13:01;2.80;99.90
23233;DHT22;11785;49.500;8.288;2024-03-08T03:15:26;2.90;99.90
23233;DHT22;11785;49.500;8.288;2024-03-08T03:17:52;2.90;99.90
23233;DHT22;11785;49.500;8.288;2024-03-08T03:20:18;2.90;99.90
23233;DHT22;11785;49.500;8.288;2024-03-08T03:22:52;2.90;99.90
23233;DHT22;11785;49.500;8.288;2024-03-08T03:25:21;2.90;99.90
23233;DHT22;11785;49.500;8.288;2024-03-08T03:27:54;2.90;99.90
23233;DHT22;11785;49.500;8.288;2024-03-08T03:30:23;2.90;99.90
23233;DHT22;11785;49.500;8.288;2024-03-08T03:32:51;2.90;99.90
23233;DHT22;11785;49.500;8.288;2024-03-08T03:35:21;2.80;99.90
23233;DHT22;11785;49.500;8.288;2024-03-08T03:37:47;2.80;99.90
23233;DHT22;11785;49.500;8.288;2024-03-08T03:40:35;2.70;99.90
23233;DHT22;11785;49.500;8.288;2024-03-08T03:43:02;2.70;99.90
23233;DHT22;11785;49.500;8.288;2024-03-08T03:45:31;2.60;99.90
23233;DHT22;11785;49.500;8.288;2024-03-08T03:48:09;2.60;99.90
23233;DHT22;11785;49.500;8.288;2024-03-08T03:50:35;2.60;99.90
23233;DHT22;11785;49.500;8.288;2024-03-08T03:53:01;2.60;99.90
23233;DHT22;11785;49.500;8.288;2024-03-08T03:55:28;2.60;99.90
23233;DHT22;11785;49.500;8.288;2024-03-08T03:57:54;2.60;99.90
23233;DHT22;11785;49.500;8.288;2024-03-08T04:00:20;2.60;99.90
23233;DHT22;11785;49.500;8.288;2024-03-08T04:02:45;2.60;99.90
23233;DHT22;11785;49.500;8.288;2024-03-08T04:05:12;2.60;99.90
23233;DHT22;11785;49.500;8.288;2024-03-08T04:07:38;2.60;99.90
23233;DHT22;11785;49.500;8.288;2024-03-08T04:10:05;2.60;99.90
23233;DHT22;11785;49.500;8.288;2024-03-08T04:12:34;2.60;99.90
23233;DHT22;11785;49.500;8.288;2024-03-08T04:15:00;2.50;99.90
23233;DHT22;11785;49.500;8.288;2024-03-08T04:17:25;2.50;99.90
23233;DHT22;11785;49.500;8.288;2024-03-08T04:19:52;2.50;99.90
23233;DHT22;11785;49.500;8.288;2024-03-08T04:22:17;2.40;99.90
23233;DHT22;11785;49.500;8.288;2024-03-08T04:24:44;2.40;99.90
23233;DHT22;11785;49.500;8.288;2024-03-08T04:27:10;2.40;99.90
23233;DHT22;11785;49.500;8.288;2024-03-08T04:29:35;2.40;99.90
23233;DHT22;11785;49.500;8.288;2024-03-08T04:32:03;2.30;99.90
23233;DHT22;11785;49.500;8.288;2024-03-08T04:34:30;2.30;99.90
23233;DHT22;11785;49.500;8.288;2024-03-08T04:36:59;2.20;99.90
23233;DHT22;11785;49.500;8.288;2024-03-08T04:39:25;2.20;99.90
23233;DHT22;11785;49.500;8.288;2024-03-08T04:41:54;2.10;99.90
23233;DHT22;11785;49.500;8.288;2024-03-08T04:44:22;2.10;99.90
23233;DHT22;11785;49.500;8.288;2024-03-08T04:46:48;2.10;99.90
23233;DHT22;11785;49.500;8.288;2024-03-08T04:49:13;2.10;99.90
23233;DHT22;11785;49.500;8.288;2024-03-08T04:51:39;2.10;99.90
23233;DHT22;11785;49.500;8.288;2024-03-08T04:54:05;2.10;99.90
23233;DHT22;11785;49.500;8.288;2024-03-08T04:56:31;2.10;99.90
23233;DHT22;11785;49.500;8.288;2024-03-08T04:58:57;2.10;99.90
23233;DHT22;11785;49.500;8.288;2024-03-08T05:01:22;2.10;99.90
23233;DHT22;11785;49.500;8.288;2024-03-08T05:03:48;2.10;99.90
23233;DHT22;11785;49.500;8.288;2024-03-08T05:06:16;2.30;99.90
23233;DHT22;11785;49.500;8.288;2024-03-08T05:08:41;2.30;99.90
23233;DHT22;11785;49.500;8.288;2024-03-08T05:11:07;2.30;99.90
23233;DHT22;11785;49.500;8.288;2024-03-08T05:13:32;2.20;99.90
23233;DHT22;11785;49.500;8.288;2024-03-08T05:15:59;2.20;99.90
23233;DHT22;11785;49.500;8.288;2024-03-08T05:18:25;2.10;99.90
23233;DHT22;11785;49.500;8.288;2024-03-08T05:20:50;2.20;99.90
23233;DHT22;11785;49.500;8.288;2024-03-08T05:23:17;2.20;99.90
23233;DHT22;11785;49.500;8.288;2024-03-08T05:25:45;2.20;99.90
23233;DHT22;11785;49.500;8.288;2024-03-08T05:28:12;2.30;99.90
23233;DHT22;11785;49.500;8.288;2024-03-08T05:30:38;2.30;99.90
23233;DHT22;11785;49.500;8.288;2024-03-08T05:33:04;2.20;99.90
23233;DHT22;11785;49.500;8.288;2024-03-08T05:35:29;2.20;99.90
23233;DHT22;11785;49.500;8.288;2024-03-08T05:37:55;2.20;99.90
23233;DHT22;11785;49.500;8.288;2024-03-08T05:40:21;2.20;99.90
23233;DHT22;11785;49.500;8.288;2024-03-08T05:42:46;2.10;99.90
23233;DHT22;11785;49.500;8.288;2024-03-08T05:45:12;2.10;99.90
23233;DHT22;11785;49.500;8.288;2024-03-08T05:47:39;2.00;99.90
23233;DHT22;11785;49.500;8.288;2024-03-08T05:50:05;2.00;99.90
23233;DHT22;11785;49.500;8.288;2024-03-08T05:52:33;2.00;99.90
23233;DHT22;11785;49.500;8.288;2024-03-08T05:54:58;1.90;99.90
23233;DHT22;11785;49.500;8.288;2024-03-08T05:57:24;1.80;99.90
23233;DHT22;11785;49.500;8.288;2024-03-08T05:59:50;1.80;99.90
23233;DHT22;11785;49.500;8.288;2024-03-08T06:02:15;1.80;99.90
23233;DHT22;11785;49.500;8.288;2024-03-08T06:04:45;1.70;99.90
23233;DHT22;11785;49.500;8.288;2024-03-08T06:07:12;1.60;99.90
23233;DHT22;11785;49.500;8.288;2024-03-08T06:09:38;1.50;99.90
23233;DHT22;11785;49.500;8.288;2024-03-08T06:12:05;1.40;99.90
23233;DHT22;11785;49.500;8.288;2024-03-08T06:14:32;1.30;99.90
23233;DHT22;11785;49.500;8.288;2024-03-08T06:16:57;1.30;99.90
23233;DHT22;11785;49.500;8.288;2024-03-08T06:19:23;1.20;99.90
23233;DHT22;11785;49.500;8.288;2024-03-08T06:21:48;1.10;99.90
23233;DHT22;11785;49.500;8.288;2024-03-08T06:24:14;1.10;99.90
23233;DHT22;11785;49.500;8.288;2024-03-08T06:26:40;1.10;99.90
23233;DHT22;11785;49.500;8.288;2024-03-08T06:29:06;1.10;99.90
23233;DHT22;11785;49.500;8.288;2024-03-08T06:31:34;1.20;99.90
23233;DHT22;11785;49.500;8.288;2024-03-08T06:34:00;1.20;99.90
23233;DHT22;11785;49.500;8.288;2024-03-08T06:36:25;1.30;99.90
23233;DHT22;11785;49.500;8.288;2024-03-08T06:38:51;1.40;99.90
23233;DHT22;11785;49.500;8.288;2024-03-08T06:41:17;1.40;99.90
23233;DHT22;11785;49.500;8.288;2024-03-08T06:43:43;1.50;99.90
23233;DHT22;11785;49.500;8.288;2024-03-08T06:46:09;1.60;99.90
23233;DHT22;11785;49.500;8.288;2024-03-08T06:48:35;1.70;99.90
23233;DHT22;11785;49.500;8.288;2024-03-08T06:51:02;1.70;99.90
23233;DHT22;11785;49.500;8.288;2024-03-08T06:53:28;1.80;99.90
23233;DHT22;11785;49.500;8.288;2024-03-08T06:55:53;1.90;99.90
23233;DHT22;11785;49.500;8.288;2024-03-08T06:58:20;2.10;99.90
23233;DHT22;11785;49.500;8.288;2024-03-08T07:00:45;2.30;99.90
23233;DHT22;11785;49.500;8.288;2024-03-08T07:03:12;2.40;99.90
23233;DHT22;11785;49.500;8.288;2024-03-08T07:05:42;2.60;99.90
23233;DHT22;11785;49.500;8.288;2024-03-08T07:08:08;2.80;99.90
23233;DHT22;11785;49.500;8.288;2024-03-08T07:10:33;3.00;99.90
23233;DHT22;11785;49.500;8.288;2024-03-08T07:13:00;3.40;99.90
23233;DHT22;11785;49.500;8.288;2024-03-08T07:15:27;3.80;99.90
23233;DHT22;11785;49.500;8.288;2024-03-08T07:17:54;4.00;99.90
23233;DHT22;11785;49.500;8.288;2024-03-08T07:20:20;4.30;99.90
23233;DHT22;11785;49.500;8.288;2024-03-08T07:22:46;4.40;99.90
23233;DHT22;11785;49.500;8.288;2024-03-08T07:25:18;4.60;99.90
23233;DHT22;11785;49.500;8.288;2024-03-08T07:27:56;4.70;99.90
23233;DHT22;11785;49.500;8.288;2024-03-08T07:30:23;4.80;99.90
23233;DHT22;11785;49.500;8.288;2024-03-08T07:33:07;4.90;99.90
23233;DHT22;11785;49.500;8.288;2024-03-08T07:35:33;5.00;99.90
23233;DHT22;11785;49.500;8.288;2024-03-08T07:38:06;5.10;99.90
23233;DHT22;11785;49.500;8.288;2024-03-08T07:40:38;5.10;99.90
23233;DHT22;11785;49.500;8.288;2024-03-08T07:43:07;5.20;99.90
23233;DHT22;11785;49.500;8.288;2024-03-08T07:45:32;5.20;99.80
23233;DHT22;11785;49.500;8.288;2024-03-08T07:47:59;5.30;99.70
23233;DHT22;11785;49.500;8.288;2024-03-08T07:50:25;5.40;99.60
23233;DHT22;11785;49.500;8.288;2024-03-08T07:52:50;5.50;99.00
23233;DHT22;11785;49.500;8.288;2024-03-08T07:55:16;5.60;98.30
23233;DHT22;11785;49.500;8.288;2024-03-08T07:57:41;5.70;98.10
23233;DHT22;11785;49.500;8.288;2024-03-08T08:00:08;5.80;97.60
23233;DHT22;11785;49.500;8.288;2024-03-08T08:02:35;5.90;96.90
23233;DHT22;11785;49.500;8.288;2024-03-08T08:05:01;5.90;96.60
23233;DHT22;11785;49.500;8.288;2024-03-08T08:07:27;5.90;96.20
23233;DHT22;11785;49.500;8.288;2024-03-08T08:09:53;6.00;96.00
23233;DHT22;11785;49.500;8.288;2024-03-08T08:12:18;6.00;95.50
23233;DHT22;11785;49.500;8.288;2024-03-08T08:14:44;6.10;95.20
23233;DHT22;11785;49.500;8.288;2024-03-08T08:17:09;6.20;95.10
23233;DHT22;11785;49.500;8.288;2024-03-08T08:19:35;6.40;94.20
23233;DHT22;11785;49.500;8.288;2024-03-08T08:22:01;6.50;93.60
23233;DHT22;11785;49.500;8.288;2024-03-08T08:24:31;6.60;93.20
23233;DHT22;11785;49.500;8.288;2024-03-08T08:26:57;6.70;92.60
23233;DHT22;11785;49.500;8.288;2024-03-08T08:29:22;6.70;92.30
23233;DHT22;11785;49.500;8.288;2024-03-08T08:31:48;6.80;92.10
23233;DHT22;11785;49.500;8.288;2024-03-08T08:34:16;6.90;91.30
23233;DHT22;11785;49.500;8.288;2024-03-08T08:36:42;7.10;90.70
23233;DHT22;11785;49.500;8.288;2024-03-08T08:39:07;6.90;90.70
23233;DHT22;11785;49.500;8.288;2024-03-08T08:41:39;6.90;91.00
23233;DHT22;11785;49.500;8.288;2024-03-08T08:44:04;6.90;90.80
23233;DHT22;11785;49.500;8.288;2024-03-08T08:46:38;7.00;90.40
23233;DHT22;11785;49.500;8.288;2024-03-08T08:49:04;7.00;90.20
23233;DHT22;11785;49.500;8.288;2024-03-08T08:51:31;7.00;89.50
23233;DHT22;11785;49.500;8.288;2024-03-08T08:53:59;6.90;90.10
23233;DHT22;11785;49.500;8.288;2024-03-08T08:56:24;7.00;89.70
23233;DHT22;11785;49.500;8.288;2024-03-08T08:58:51;7.20;89.00
23233;DHT22;11785;49.500;8.288;2024-03-08T09:01:19;7.40;86.20
23233;DHT22;11785;49.500;8.288;2024-03-08T09:03:44;7.30;86.20
23233;DHT22;11785;49.500;8.288;2024-03-08T09:06:12;7.40;85.20
23233;DHT22;11785;49.500;8.288;2024-03-08T09:08:38;7.30;85.80
23233;DHT22;11785;49.500;8.288;2024-03-08T09:11:04;7.40;85.30
23233;DHT22;11785;49.500;8.288;2024-03-08T09:13:31;7.40;84.60
23233;DHT22;11785;49.500;8.288;2024-03-08T09:15:56;7.50;83.50
23233;DHT22;11785;49.500;8.288;2024-03-08T09:18:22;7.60;83.10
23233;DHT22;11785;49.500;8.288;2024-03-08T09:20:49;7.80;80.90
23233;DHT22;11785;49.500;8.288;2024-03-08T09:23:15;7.80;80.60
23233;DHT22;11785;49.500;8.288;2024-03-08T09:25:42;7.90;80.20
23233;DHT22;11785;49.500;8.288;2024-03-08T09:28:09;8.00;78.80
23233;DHT22;11785;49.500;8.288;2024-03-08T09:30:34;8.10;78.10
23233;DHT22;11785;49.500;8.288;2024-03-08T09:33:00;8.20;77.40
23233;DHT22;11785;49.500;8.288;2024-03-08T09:35:26;8.20;76.70
23233;DHT22;11785;49.500;8.288;2024-03-08T09:37:52;8.20;77.00
23233;DHT22;11785;49.500;8.288;2024-03-08T09:40:19;8.50;75.80
23233;DHT22;11785;49.500;8.288;2024-03-08T09:42:46;8.90;72.00
23233;DHT22;11785;49.500;8.288;2024-03-08T09:45:12;9.20;69.50
23233;DHT22;11785;49.500;8.288;2024-03-08T09:47:44;8.90;69.20
23233;DHT22;11785;49.500;8.288;2024-03-08T09:50:11;8.30;74.30
23233;DHT22;11785;49.500;8.288;2024-03-08T09:52:42;8.00;76.80
23233;DHT22;11785;49.500;8.288;2024-03-08T09:55:09;7.80;78.50
23233;DHT22;11785;49.500;8.288;2024-03-08T09:57:37;8.00;77.80
23233;DHT22;11785;49.500;8.288;2024-03-08T10:00:04;8.50;75.30
23233;DHT22;11785;49.500;8.288;2024-03-08T10:02:45;8.50;72.90
23233;DHT22;11785;49.500;8.288;2024-03-08T10:05:12;8.60;73.60
23233;DHT22;11785;49.500;8.288;2024-03-08T10:07:39;8.90;69.90
23233;DHT22;11785;49.500;8.288;2024-03-08T10:10:05;8.90;69.40
23233;DHT22;11785;49.500;8.288;2024-03-08T10:12:30;8.80;69.10
23233;DHT22;11785;49.500;8.288;2024-03-08T10:14:58;8.80;70.50
23233;DHT22;11785;49.500;8.288;2024-03-08T10:17:24;8.90;69.60
23233;DHT22;11785;49.500;8.288;2024-03-08T10:19:51;8.50;72.40
23233;DHT22;11785;49.500;8.288;2024-03-08T10:22:18;8.40;72.70
23233;DHT22;11785;49.500;8.288;2024-03-08T10:24:48;8.60;72.10
23233;DHT22;11785;49.500;8.288;2024-03-08T10:27:16;8.50;71.70
23233;DHT22;11785;49.500;8.288;2024-03-08T10:29:41;8.60;70.60
23233;DHT22;11785;49.500;8.288;2024-03-08T10:32:09;8.60;72.10
23233;DHT22;11785;49.500;8.288;2024-03-08T10:34:35;8.50;70.70
23233;DHT22;11785;49.500;8.288;2024-03-08T10:37:04;8.50;71.90
23233;DHT22;11785;49.500;8.288;2024-03-08T10:39:35;8.60;70.30
23233;DHT22;11785;49.500;8.288;2024-03-08T10:42:03;8.50;71.90
23233;DHT22;11785;49.500;8.288;2024-03-08T10:49:38;8.50;72.00
23233;DHT22;11785;49.500;8.288;2024-03-08T10:52:04;9.20;66.90
23233;DHT22;11785;49.500;8.288;2024-03-08T10:54:34;9.50;63.60
23233;DHT22;11785;49.500;8.288;2024-03-08T10:57:01;9.20;64.10
23233;DHT22;11785;49.500;8.288;2024-03-08T10:59:29;9.10;66.70
23233;DHT22;11785;49.500;8.288;2024-03-08T11:01:55;9.50;63.80
23233;DHT22;11785;49.500;8.288;2024-03-08T11:04:21;9.90;61.50
23233;DHT22;11785;49.500;8.288;2024-03-08T11:06:50;10.10;59.90
23233;DHT22;11785;49.500;8.288;2024-03-08T11:09:31;10.40;59.80
23233;DHT22;11785;49.500;8.288;2024-03-08T11:12:25;10.30;59.80
23233;DHT22;11785;49.500;8.288;2024-03-08T11:15:10;10.20;59.80
23233;DHT22;11785;49.500;8.288;2024-03-08T11:20:16;10.60;59.70
23233;DHT22;11785;49.500;8.288;2024-03-08T11:22:59;10.50;59.70
23233;DHT22;11785;49.500;8.288;2024-03-08T11:30:42;10.30;59.80
23233;DHT22;11785;49.500;8.288;2024-03-08T11:33:11;10.60;59.70
23233;DHT22;11785;49.500;8.288;2024-03-08T11:35:38;10.90;59.60
23233;DHT22;11785;49.500;8.288;2024-03-08T11:38:04;11.20;59.50
23233;DHT22;11785;49.500;8.288;2024-03-08T11:40:30;11.20;59.60
23233;DHT22;11785;49.500;8.288;2024-03-08T11:42:58;11.00;59.60
23233;DHT22;11785;49.500;8.288;2024-03-08T11:45:24;11.10;59.60
23233;DHT22;11785;49.500;8.288;2024-03-08T11:47:50;10.90;59.60
23233;DHT22;11785;49.500;8.288;2024-03-08T11:50:16;10.90;59.60
23233;DHT22;11785;49.500;8.288;2024-03-08T11:52:44;11.20;59.50
23233;DHT22;11785;49.500;8.288;2024-03-08T11:55:11;10.80;59.60
23233;DHT22;11785;49.500;8.288;2024-03-08T11:57:38;11.10;59.60
23233;DHT22;11785;49.500;8.288;2024-03-08T12:00:04;11.50;59.50
23233;DHT22;11785;49.500;8.288;2024-03-08T12:02:35;11.50;59.50
23233;DHT22;11785;49.500;8.288;2024-03-08T12:05:05;11.50;59.40
23233;DHT22;11785;49.500;8.288;2024-03-08T12:07:41;11.40;59.40
23233;DHT22;11785;49.500;8.288;2024-03-08T12:10:21;11.70;59.40
23233;DHT22;11785;49.500;8.288;2024-03-08T12:12:48;11.40;59.40
23233;DHT22;11785;49.500;8.288;2024-03-08T12:15:15;11.70;59.40
23233;DHT22;11785;49.500;8.288;2024-03-08T12:17:43;13.00;59.00
23233;DHT22;11785;49.500;8.288;2024-03-08T12:20:24;13.90;58.80
23233;DHT22;11785;49.500;8.288;2024-03-08T12:22:55;15.30;58.30
23233;DHT22;11785;49.500;8.288;2024-03-08T12:25:30;16.00;58.10
23233;DHT22;11785;49.500;8.288;2024-03-08T12:28:12;16.50;57.80
23233;DHT22;11785;49.500;8.288;2024-03-08T12:30:49;16.90;57.70
23233;DHT22;11785;49.500;8.288;2024-03-08T12:33:17;17.00;57.60
23233;DHT22;11785;49.500;8.288;2024-03-08T12:35:51;17.90;57.40
23233;DHT22;11785;49.500;8.288;2024-03-08T12:38:19;18.40;57.30
23233;DHT22;11785;49.500;8.288;2024-03-08T12:40:49;18.50;57.20
23233;DHT22;11785;49.500;8.288;2024-03-08T12:43:15;18.60;57.10
23233;DHT22;11785;49.500;8.288;2024-03-08T12:45:41;18.80;57.10
23233;DHT22;11785;49.500;8.288;2024-03-08T12:48:13;18.60;57.10
23233;DHT22;11785;49.500;8.288;2024-03-08T12:50:40;18.70;57.00
23233;DHT22;11785;49.500;8.288;2024-03-08T12:53:08;18.80;57.00
23233;DHT22;11785;49.500;8.288;2024-03-08T12:55:34;18.70;57.10
23233;DHT22;11785;49.500;8.288;2024-03-08T12:58:00;19.00;56.90
23233;DHT22;11785;49.500;8.288;2024-03-08T13:00:26;19.50;56.80
23233;DHT22;11785;49.500;8.288;2024-03-08T13:02:53;20.00;56.60
23233;DHT22;11785;49.500;8.288;2024-03-08T13:05:19;19.70;56.60
23233;DHT22;11785;49.500;8.288;2024-03-08T13:07:45;19.50;56.70
23233;DHT22;11785;49.500;8.288;2024-03-08T13:10:15;20.00;56.60
23233;DHT22;11785;49.500;8.288;2024-03-08T13:12:43;20.10;56.50
23233;DHT22;11785;49.500;8.288;2024-03-08T13:15:10;21.40;56.20
23233;DHT22;11785;49.500;8.288;2024-03-08T13:17:40;21.30;56.20
23233;DHT22;11785;49.500;8.288;2024-03-08T13:20:08;21.70;56.10
23233;DHT22;11785;49.500;8.288;2024-03-08T13:22:35;21.90;56.10
23233;DHT22;11785;49.500;8.288;2024-03-08T13:25:01;22.60;55.80
23233;DHT22;11785;49.500;8.288;2024-03-08T13:27:29;23.50;55.60
23233;DHT22;11785;49.500;8.288;2024-03-08T13:29:55;22.80;55.70
23233;DHT22;11785;49.500;8.288;2024-03-08T13:32:20;22.40;55.80
23233;DHT22;11785;49.500;8.288;2024-03-08T13:34:47;22.70;55.80
23233;DHT22;11785;49.500;8.288;2024-03-08T13:37:13;23.40;55.60
23233;DHT22;11785;49.500;8.288;2024-03-08T13:39:41;21.70;55.90
23233;DHT22;11785;49.500;8.288;2024-03-08T13:42:18;22.00;55.90
23233;DHT22;11785;49.500;8.288;2024-03-08T13:44:45;22.50;55.80
23233;DHT22;11785;49.500;8.288;2024-03-08T13:47:16;22.20;55.90
23233;DHT22;11785;49.500;8.288;2024-03-08T13:49:45;22.30;55.80
23233;DHT22;11785;49.500;8.288;2024-03-08T13:52:11;22.50;55.80
23233;DHT22;11785;49.500;8.288;2024-03-08T13:54:42;22.50;55.80
23233;DHT22;11785;49.500;8.288;2024-03-08T13:57:07;22.80;55.70
23233;DHT22;11785;49.500;8.288;2024-03-08T13:59:34;22.70;55.70
23233;DHT22;11785;49.500;8.288;2024-03-08T14:02:01;23.00;55.60
23233;DHT22;11785;49.500;8.288;2024-03-08T14:04:28;22.60;55.70
23233;DHT22;11785;49.500;8.288;2024-03-08T14:06:53;23.20;55.60
23233;DHT22;11785;49.500;8.288;2024-03-08T14:09:23;23.80;55.40
23233;DHT22;11785;49.500;8.288;2024-03-08T14:11:52;23.70;55.50
23233;DHT22;11785;49.500;8.288;2024-03-08T14:14:21;24.10;55.30
23233;DHT22;11785;49.500;8.288;2024-03-08T14:16:49;25.10;47.10
23233;DHT22;11785;49.500;8.288;2024-03-08T14:19:18;25.10;47.10
23233;DHT22;11785;49.500;8.288;2024-03-08T14:21:44;25.10;47.10
23233;DHT22;11785;49.500;8.288;2024-03-08T14:24:10;25.20;47.20
23233;DHT22;11785;49.500;8.288;2024-03-08T14:26:35;23.90;55.30
23233;DHT22;11785;49.500;8.288;2024-03-08T14:29:04;24.40;55.20
23233;DHT22;11785;49.500;8.288;2024-03-08T14:31:30;23.10;55.50
23233;DHT22;11785;49.500;8.288;2024-03-08T14:33:56;22.20;55.70
23233;DHT22;11785;49.500;8.288;2024-03-08T14:36:24;23.00;55.60
23233;DHT22;11785;49.500;8.288;2024-03-08T14:38:51;23.20;55.50
23233;DHT22;11785;49.500;8.288;2024-03-08T14:41:18;23.20;55.50
23233;DHT22;11785;49.500;8.288;2024-03-08T14:43:43;24.00;55.30
23233;DHT22;11785;49.500;8.288;2024-03-08T14:46:13;24.60;55.20
23233;DHT22;11785;49.500;8.288;2024-03-08T14:48:43;24.40;55.20
23233;DHT22;11785;49.500;8.288;2024-03-08T14:51:08;24.60;55.20
23233;DHT22;11785;49.500;8.288;2024-03-08T14:53:40;24.50;55.20
23233;DHT22;11785;49.500;8.288;2024-03-08T14:56:09;24.20;55.20
23233;DHT22;11785;49.500;8.288;2024-03-08T14:58:35;23.50;55.40
23233;DHT22;11785;49.500;8.288;2024-03-08T15:01:01;23.20;55.40
23233;DHT22;11785;49.500;8.288;2024-03-08T15:03:27;23.20;55.50
23233;DHT22;11785;49.500;8.288;2024-03-08T15:05:54;22.20;55.70
23233;DHT22;11785;49.500;8.288;2024-03-08T15:08:21;22.40;55.60
23233;DHT22;11785;49.500;8.288;2024-03-08T15:10:48;23.50;55.40
23233;DHT22;11785;49.500;8.288;2024-03-08T15:13:20;23.80;55.30
23233;DHT22;11785;49.500;8.288;2024-03-08T15:15:53;23.50;55.40
23233;DHT22;11785;49.500;8.288;2024-03-08T15:18:25;23.80;55.30
23233;DHT22;11785;49.500;8.288;2024-03-08T15:20:52;23.70;55.30
23233;DHT22;11785;49.500;8.288;2024-03-08T15:23:18;24.10;55.30
23233;DHT22;11785;49.500;8.288;2024-03-08T15:25:44;23.50;55.40
23233;DHT22;11785;49.500;8.288;2024-03-08T15:28:17;22.70;55.60
23233;DHT22;11785;49.500;8.288;2024-03-08T15:30:46;21.30;55.90
23233;DHT22;11785;49.500;8.288;2024-03-08T15:33:14;20.80;56.10
23233;DHT22;11785;49.500;8.288;2024-03-08T15:35:41;20.40;56.10
23233;DHT22;11785;49.500;8.288;2024-03-08T15:38:07;20.80;56.10
23233;DHT22;11785;49.500;8.288;2024-03-08T15:40:33;21.00;56.00
23233;DHT22;11785;49.500;8.288;2024-03-08T15:43:00;20.80;56.10
23233;DHT22;11785;49.500;8.288;2024-03-08T15:45:26;21.30;55.90
23233;DHT22;11785;49.500;8.288;2024-03-08T15:47:55;20.50;56.10
23233;DHT22;11785;49.500;8.288;2024-03-08T15:50:21;20.30;56.20
23233;DHT22;11785;49.500;8.288;2024-03-08T15:52:52;20.50;56.20
23233;DHT22;11785;49.500;8.288;2024-03-08T15:55:21;21.10;56.00